Simson — PHHN — position and weather

sailwx.info

Track history (hours):
 
Tides and Currents Weather Stations Pressure Air Temp Water Temp Dewpoint Dewpoint Depression Visibility Wind Speed Wind Dir Waves Ship Positions

Simson

Last reported at 2017-Sep-28 21:16 UTC. Time now 2017-Nov-22 07:32 UTC.
Position N 37°39' E 023°43'.
Warning: this ship's position is 54 days out of date.

Length 30 m; draft 4.9 m.

Type: Tug. MMSI: 245285000.

Date/timePositionNaut miles runAvg speedWind from/ knotsBaromVisibWave heightAir tempDewpointWater temp
2017-Sep-28 21:16N 37°39' E 023°43'2 7.4
2017-Sep-28 21:00N 37°41' E 023°42'4 8.1
2017-Sep-28 20:30N 37°44' E 023°40'4 8.0
2017-Sep-28 20:00N 37°48' E 023°37'4 7.1
2017-Sep-28 19:30N 37°50' E 023°34'4 8.0
2017-Sep-28 19:00N 37°51' E 023°29'4 8.1
2017-Sep-28 18:31N 37°51' E 023°24'4 7.8
2017-Sep-28 18:01N 37°52' E 023°19'4 7.7
2017-Sep-28 17:31N 37°52' E 023°14'4 8.2
2017-Sep-28 17:01N 37°53' E 023°09'4 8.1
2017-Sep-28 16:30N 37°54' E 023°04'3 6.0
2017-Sep-28 16:00N 37°55' E 023°00'3 5.2
2017-Sep-28 15:30N 37°57' E 022°58'4 5.9
2017-Sep-28 14:49N 37°59' E 022°54'327 8.6
2017-Sep-27 00:54N 37°53' E 015°59'3 8.6
2017-Sep-27 00:30N 37°53' E 015°55'4 8.6
2017-Sep-27 00:00N 37°53' E 015°50'4 8.8
2017-Sep-26 23:30N 37°54' E 015°44'4 8.9
2017-Sep-26 23:01N 37°57' E 015°40'4 8.2
2017-Sep-26 22:30N 38°00' E 015°37'4 8.1
2017-Sep-26 22:00N 38°04' E 015°36'4 8.7
2017-Sep-26 21:30N 38°09' E 015°35'4 8.7
2017-Sep-26 21:00N 38°13' E 015°36'4 8.5
2017-Sep-26 20:31N 38°16' E 015°40'5 9.0
2017-Sep-26 20:00N 38°19' E 015°36'4 8.8
2017-Sep-26 19:30N 38°20' E 015°30'4 8.8
2017-Sep-26 19:00N 38°20' E 015°25'4 8.6
2017-Sep-26 18:30N 38°20' E 015°19'4 8.6
2017-Sep-26 18:00N 38°20' E 015°14'5 8.8
2017-Sep-26 17:29N 38°20' E 015°08'5 9.1
2017-Sep-26 16:58N 38°19' E 015°02'38 8.7
2017-Sep-26 12:36N 38°18' E 014°13'1 8.8
2017-Sep-26 12:28N 38°18' E 014°12'4 8.8
2017-Sep-26 12:00N 38°18' E 014°07'5 8.9
2017-Sep-26 11:30N 38°17' E 014°01'4 8.8
2017-Sep-26 11:00N 38°17' E 013°55'5 8.9
2017-Sep-26 10:30N 38°17' E 013°50'4 8.8
2017-Sep-26 10:00N 38°18' E 013°44'4 9.0
2017-Sep-26 09:30N 38°18' E 013°38'4 8.9
2017-Sep-26 09:00N 38°18' E 013°33'4 8.8
2017-Sep-26 08:30N 38°17' E 013°27'4 8.7
2017-Sep-26 08:00N 38°17' E 013°22'4 8.7
2017-Sep-26 07:30N 38°17' E 013°16'5 9.0
2017-Sep-26 07:00N 38°17' E 013°10'  
2017-Sep-20 17:54N 36°26' W 008°36'27 8.9
2017-Sep-20 14:56N 36°33' W 009°08'29 8.6
2017-Sep-20 11:34N 36°53' W 009°34'4 9.1
2017-Sep-20 11:07N 36°57' W 009°35'33 9.4
2017-Sep-20 07:38N 37°29' W 009°44'3 9.6
2017-Sep-20 07:16N 37°32' W 009°45'3 9.7
2017-Sep-20 06:58N 37°35' W 009°46'4 9.7
2017-Sep-20 06:30N 37°40' W 009°47'19 9.1
2017-Sep-20 04:27N 37°58' W 009°52'4 9.2
2017-Sep-20 04:00N 38°02' W 009°53'5 9.3
2017-Sep-20 03:30N 38°06' W 009°54'5 9.3
2017-Sep-20 03:00N 38°11' W 009°56'4 9.0
2017-Sep-20 02:30N 38°15' W 009°57'5 9.1
2017-Sep-20 02:00N 38°20' W 009°58'5 9.7
2017-Sep-20 01:30N 38°24' W 009°60'510.1
2017-Sep-20 01:01N 38°29' W 010°01'510.4
2017-Sep-20 00:30N 38°34' W 010°02'510.0
2017-Sep-20 00:00N 38°39' W 010°04'5 9.7
2017-Sep-19 23:31N 38°44' W 010°05'5 9.4
2017-Sep-19 23:00N 38°49' W 010°05'5 9.1
2017-Sep-19 22:30N 38°53' W 010°05'5 9.4
2017-Sep-19 22:00N 38°58' W 010°05'5 9.5
2017-Sep-19 21:30N 39°03' W 010°05'  
Track history (hours):
 
Tides and Currents Weather Stations Pressure Air Temp Water Temp Dewpoint Dewpoint Depression Visibility Wind Speed Wind Dir Waves Ship Positions

Simson

Last reported at 2017-Sep-28 21:16 UTC. Time now 2017-Nov-22 07:32 UTC.
Position N 37°39' E 023°43'.
Warning: this ship's position is 54 days out of date.

Length 30 m; draft 4.9 m.

Type: Tug. MMSI: 245285000.

Date/timePositionNaut miles runAvg speedWind from/ knotsBaromVisibWave heightAir tempDewpointWater temp
2017-Sep-28 21:16N 37°39' E 023°43'2 7.4
2017-Sep-28 21:00N 37°41' E 023°42'4 8.1
2017-Sep-28 20:30N 37°44' E 023°40'4 8.0
2017-Sep-28 20:00N 37°48' E 023°37'4 7.1
2017-Sep-28 19:30N 37°50' E 023°34'4 8.0
2017-Sep-28 19:00N 37°51' E 023°29'4 8.1
2017-Sep-28 18:31N 37°51' E 023°24'4 7.8
2017-Sep-28 18:01N 37°52' E 023°19'4 7.7
2017-Sep-28 17:31N 37°52' E 023°14'4 8.2
2017-Sep-28 17:01N 37°53' E 023°09'4 8.1
2017-Sep-28 16:30N 37°54' E 023°04'3 6.0
2017-Sep-28 16:00N 37°55' E 023°00'3 5.2
2017-Sep-28 15:30N 37°57' E 022°58'4 5.9
2017-Sep-28 14:49N 37°59' E 022°54'327 8.6
2017-Sep-27 00:54N 37°53' E 015°59'3 8.6
2017-Sep-27 00:30N 37°53' E 015°55'4 8.6
2017-Sep-27 00:00N 37°53' E 015°50'4 8.8
2017-Sep-26 23:30N 37°54' E 015°44'4 8.9
2017-Sep-26 23:01N 37°57' E 015°40'4 8.2
2017-Sep-26 22:30N 38°00' E 015°37'4 8.1
2017-Sep-26 22:00N 38°04' E 015°36'4 8.7
2017-Sep-26 21:30N 38°09' E 015°35'4 8.7
2017-Sep-26 21:00N 38°13' E 015°36'4 8.5
2017-Sep-26 20:31N 38°16' E 015°40'5 9.0
2017-Sep-26 20:00N 38°19' E 015°36'4 8.8
2017-Sep-26 19:30N 38°20' E 015°30'4 8.8
2017-Sep-26 19:00N 38°20' E 015°25'4 8.6
2017-Sep-26 18:30N 38°20' E 015°19'4 8.6
2017-Sep-26 18:00N 38°20' E 015°14'5 8.8
2017-Sep-26 17:29N 38°20' E 015°08'5 9.1
2017-Sep-26 16:58N 38°19' E 015°02'38 8.7
2017-Sep-26 12:36N 38°18' E 014°13'1 8.8
2017-Sep-26 12:28N 38°18' E 014°12'4 8.8
2017-Sep-26 12:00N 38°18' E 014°07'5 8.9
2017-Sep-26 11:30N 38°17' E 014°01'4 8.8
2017-Sep-26 11:00N 38°17' E 013°55'5 8.9
2017-Sep-26 10:30N 38°17' E 013°50'4 8.8
2017-Sep-26 10:00N 38°18' E 013°44'4 9.0
2017-Sep-26 09:30N 38°18' E 013°38'4 8.9
2017-Sep-26 09:00N 38°18' E 013°33'4 8.8
2017-Sep-26 08:30N 38°17' E 013°27'4 8.7
2017-Sep-26 08:00N 38°17' E 013°22'4 8.7
2017-Sep-26 07:30N 38°17' E 013°16'5 9.0
2017-Sep-26 07:00N 38°17' E 013°10'  
2017-Sep-20 17:54N 36°26' W 008°36'27 8.9
2017-Sep-20 14:56N 36°33' W 009°08'29 8.6
2017-Sep-20 11:34N 36°53' W 009°34'4 9.1
2017-Sep-20 11:07N 36°57' W 009°35'33 9.4
2017-Sep-20 07:38N 37°29' W 009°44'3 9.6
2017-Sep-20 07:16N 37°32' W 009°45'3 9.7
2017-Sep-20 06:58N 37°35' W 009°46'4 9.7
2017-Sep-20 06:30N 37°40' W 009°47'19 9.1
2017-Sep-20 04:27N 37°58' W 009°52'4 9.2
2017-Sep-20 04:00N 38°02' W 009°53'5 9.3
2017-Sep-20 03:30N 38°06' W 009°54'5 9.3
2017-Sep-20 03:00N 38°11' W 009°56'4 9.0
2017-Sep-20 02:30N 38°15' W 009°57'5 9.1
2017-Sep-20 02:00N 38°20' W 009°58'5 9.7
2017-Sep-20 01:30N 38°24' W 009°60'510.1
2017-Sep-20 01:01N 38°29' W 010°01'510.4
2017-Sep-20 00:30N 38°34' W 010°02'510.0
2017-Sep-20 00:00N 38°39' W 010°04'5 9.7
2017-Sep-19 23:31N 38°44' W 010°05'5 9.4
2017-Sep-19 23:00N 38°49' W 010°05'5 9.1
2017-Sep-19 22:30N 38°53' W 010°05'5 9.4
2017-Sep-19 22:00N 38°58' W 010°05'5 9.5
2017-Sep-19 21:30N 39°03' W 010°05'  

Dump ship's entire track history